Time;durP1;ratioP1;P1;durP2;ratioP2;P2;SDS_P1;SDS_P2;PMS_P1;PMS_P2;Temp;Humidity;BMP_temperature;BMP_pressure;BME280_temperature;BME280_humidity;BME280_pressure;Samples;Min_cycle;Max_cycle;Signal;HPM_P1;HPM_P2
2023/03/06 00:01:06;0.00;0.00;0.62;0.00;0.00;0.62;1.83;1.20;;;20.90;21.40;;;;;;2272346;61;20370;-59
2023/03/06 00:03:52;0.00;0.00;0.62;0.00;0.00;0.62;2.03;1.10;;;20.90;21.40;;;;;;2272764;61;20439;-60
2023/03/06 00:06:37;0.00;0.00;0.62;0.00;0.00;0.62;2.03;1.37;;;20.90;21.40;;;;;;2272833;61;20894;-61
2023/03/06 00:09:21;0.00;0.00;0.62;0.00;0.00;0.62;1.93;1.20;;;20.90;21.40;;;;;;2268784;61;20408;-59
2023/03/06 00:12:07;0.00;0.00;0.62;0.00;0.00;0.62;2.10;1.10;;;20.90;21.40;;;;;;2272775;61;20415;-58
2023/03/06 00:14:53;0.00;0.00;0.62;0.00;0.00;0.62;1.40;0.90;;;20.90;21.50;;;;;;2272688;61;20386;-60
2023/03/06 00:17:42;0.00;0.00;0.62;0.00;0.00;0.62;2.20;1.10;;;20.90;21.40;;;;;;2272414;61;20368;-58
2023/03/06 00:20:27;0.00;0.00;0.62;0.00;0.00;0.62;2.23;1.10;;;20.90;21.40;;;;;;2269290;61;20442;-57
2023/03/06 00:23:11;0.00;0.00;0.62;0.00;0.00;0.62;1.93;1.00;;;20.90;21.40;;;;;;2266326;61;20378;-56
2023/03/06 00:25:56;0.00;0.00;0.62;0.00;0.00;0.62;2.07;1.00;;;20.90;21.40;;;;;;2272484;61;20358;-63
2023/03/06 00:28:40;0.00;0.00;0.62;0.00;0.00;0.62;1.87;1.03;;;20.90;21.50;;;;;;2272769;61;20383;-63
2023/03/06 00:31:28;0.00;0.00;0.62;0.00;0.00;0.62;1.80;1.07;;;20.90;21.50;;;;;;2268871;61;20549;-61
2023/03/06 00:34:16;0.00;0.00;0.62;0.00;0.00;0.62;1.90;1.30;;;20.90;21.50;;;;;;2272397;61;20374;-58
2023/03/06 00:37:01;0.00;0.00;0.62;0.00;0.00;0.62;1.73;1.10;;;20.90;21.50;;;;;;2272588;60;20400;-61
2023/03/06 00:39:48;0.00;0.00;0.62;0.00;0.00;0.62;1.60;1.03;;;20.90;21.50;;;;;;2271799;61;20435;-55
2023/03/06 00:42:33;0.00;0.00;0.62;0.00;0.00;0.62;2.00;1.33;;;20.90;21.50;;;;;;2269616;61;20967;-59
2023/03/06 00:45:18;0.00;0.00;0.62;0.00;0.00;0.62;1.60;1.20;;;20.80;21.40;;;;;;2272183;61;20480;-65
2023/03/06 00:48:05;0.00;0.00;0.62;0.00;0.00;0.62;1.60;1.07;;;20.80;21.40;;;;;;2272414;61;20390;-60
2023/03/06 00:50:50;0.00;0.00;0.62;0.00;0.00;0.62;1.73;1.00;;;20.80;21.40;;;;;;2272219;61;20366;-57
2023/03/06 00:53:34;0.00;0.00;0.62;0.00;0.00;0.62;1.67;1.10;;;20.80;21.40;;;;;;2271891;61;20424;-62
2023/03/06 00:56:19;0.00;0.00;0.62;0.00;0.00;0.62;1.93;1.10;;;20.80;21.40;;;;;;2272763;61;20370;-55
2023/03/06 00:59:05;0.00;0.00;0.62;0.00;0.00;0.62;1.60;0.90;;;20.80;21.40;;;;;;2269213;61;20408;-60
2023/03/06 01:01:50;0.00;0.00;0.62;0.00;0.00;0.62;1.60;1.00;;;20.80;21.40;;;;;;2272037;61;20403;-61
2023/03/06 01:04:36;0.00;0.00;0.62;0.00;0.00;0.62;2.50;1.20;;;20.80;21.40;;;;;;2272584;61;20384;-59
2023/03/06 01:07:22;0.00;0.00;0.62;0.00;0.00;0.62;1.70;0.80;;;20.80;21.40;;;;;;2268793;61;20467;-61
2023/03/06 01:10:11;0.00;0.00;0.62;0.00;0.00;0.62;1.80;0.97;;;20.80;21.40;;;;;;2271852;61;20416;-58
2023/03/06 01:12:56;0.00;0.00;0.62;0.00;0.00;0.62;1.70;1.10;;;20.80;21.40;;;;;;2272651;61;20394;-59
2023/03/06 01:15:41;0.00;0.00;0.62;0.00;0.00;0.62;2.30;1.33;;;20.80;21.40;;;;;;2271803;61;20841;-64
2023/03/06 01:18:25;0.00;0.00;0.62;0.00;0.00;0.62;2.17;1.10;;;20.80;21.40;;;;;;2269264;61;20381;-60
2023/03/06 01:21:12;0.00;0.00;0.62;0.00;0.00;0.62;1.47;0.70;;;20.80;21.40;;;;;;2272653;61;20370;-60
2023/03/06 01:23:57;0.00;0.00;0.62;0.00;0.00;0.62;1.40;0.90;;;20.80;21.40;;;;;;2271532;61;20386;-58
2023/03/06 01:26:41;0.00;0.00;0.62;0.00;0.00;0.62;1.70;0.97;;;20.80;21.40;;;;;;2272608;61;20362;-60
2023/03/06 01:29:26;0.00;0.00;0.62;0.00;0.00;0.62;1.43;0.80;;;20.80;21.40;;;;;;2268716;61;20363;-56
2023/03/06 01:32:11;0.00;0.00;0.62;0.00;0.00;0.62;1.47;0.83;;;20.80;21.40;;;;;;2272309;61;20408;-64
2023/03/06 01:34:57;0.00;0.00;0.62;0.00;0.00;0.62;1.87;1.10;;;20.80;21.40;;;;;;2272468;61;20394;-61
2023/03/06 01:37:42;0.00;0.00;0.62;0.00;0.00;0.62;2.13;1.13;;;20.80;21.40;;;;;;2271718;61;20412;-58
2023/03/06 01:40:30;0.00;0.00;0.62;0.00;0.00;0.62;2.00;1.20;;;20.80;21.40;;;;;;2272038;61;20366;-58
2023/03/06 01:43:28;0.00;0.00;0.62;0.00;0.00;0.62;2.23;1.10;;;20.80;21.40;;;;;;2272503;61;20389;-61
2023/03/06 01:46:40;0.00;0.00;0.62;0.00;0.00;0.62;1.40;0.97;;;20.80;21.40;;;;;;2268746;61;20435;-62
2023/03/06 01:49:30;0.00;0.00;0.62;0.00;0.00;0.62;1.60;1.00;;;20.80;21.40;;;;;;2269090;61;20416;-59
2023/03/06 01:52:17;0.00;0.00;0.62;0.00;0.00;0.62;1.40;0.80;;;20.80;21.40;;;;;;2272030;61;20392;-57
2023/03/06 01:55:09;0.00;0.00;0.62;0.00;0.00;0.62;1.60;0.90;;;20.80;21.50;;;;;;2269213;61;20377;-63
2023/03/06 01:57:58;0.00;0.00;0.62;0.00;0.00;0.62;1.97;1.13;;;20.80;21.50;;;;;;2272323;61;20404;-59
2023/03/06 02:00:43;0.00;0.00;0.62;0.00;0.00;0.62;1.70;1.10;;;20.80;21.40;;;;;;2268197;61;20353;-61
2023/03/06 02:03:30;0.00;0.00;0.62;0.00;0.00;0.62;1.30;0.70;;;20.80;21.40;;;;;;2269011;61;20373;-63
2023/03/06 02:06:18;0.00;0.00;0.62;0.00;0.00;0.62;1.90;1.17;;;20.80;21.50;;;;;;2272449;61;20581;-64
2023/03/06 02:09:05;0.00;0.00;0.62;0.00;0.00;0.62;1.60;0.97;;;20.80;21.50;;;;;;2268653;61;20408;-63
2023/03/06 02:11:51;0.00;0.00;0.62;0.00;0.00;0.62;1.67;0.80;;;20.80;21.50;;;;;;2272265;61;20826;-60
2023/03/06 02:14:36;0.00;0.00;0.62;0.00;0.00;0.62;1.70;1.00;;;20.80;21.50;;;;;;2271611;61;20382;-65
2023/03/06 02:17:24;0.00;0.00;0.62;0.00;0.00;0.62;1.40;0.90;;;20.80;21.50;;;;;;2269235;61;20350;-63
2023/03/06 02:20:15;0.00;0.00;0.62;0.00;0.00;0.62;2.07;1.13;;;20.80;21.50;;;;;;2271952;61;20886;-61
2023/03/06 02:23:05;0.00;0.00;0.62;0.00;0.00;0.62;1.80;1.00;;;20.80;21.40;;;;;;2271786;61;20416;-59
2023/03/06 02:25:52;0.00;0.00;0.62;0.00;0.00;0.62;1.60;1.00;;;20.70;21.40;;;;;;2272241;61;20358;-58
2023/03/06 02:28:38;0.00;0.00;0.62;0.00;0.00;0.62;1.60;0.83;;;20.80;21.50;;;;;;2268725;61;20405;-62
2023/03/06 02:31:31;0.00;0.00;0.62;0.00;0.00;0.62;1.90;1.40;;;20.80;21.50;;;;;;2268853;61;20354;-61
2023/03/06 02:34:56;0.00;0.00;0.62;0.00;0.00;0.62;1.77;0.80;;;20.70;21.40;;;;;;2266248;61;20919;-56
2023/03/06 02:37:41;0.00;0.00;0.62;0.00;0.00;0.62;1.93;0.80;;;20.70;21.40;;;;;;2271619;61;20378;-59
2023/03/06 02:40:26;0.00;0.00;0.62;0.00;0.00;0.62;1.30;0.70;;;20.80;21.50;;;;;;2271792;61;20944;-59
2023/03/06 02:43:15;0.00;0.00;0.62;0.00;0.00;0.62;1.53;0.90;;;20.70;21.40;;;;;;2269059;61;20418;-61
2023/03/06 02:46:00;0.00;0.00;0.62;0.00;0.00;0.62;1.63;1.00;;;20.70;21.40;;;;;;2268795;61;20371;-61
2023/03/06 02:48:45;0.00;0.00;0.62;0.00;0.00;0.62;1.50;0.77;;;20.70;21.40;;;;;;2272450;61;20929;-59
2023/03/06 02:51:29;0.00;0.00;0.62;0.00;0.00;0.62;1.70;0.97;;;20.70;21.40;;;;;;2272021;61;20417;-65
2023/03/06 02:54:17;0.00;0.00;0.62;0.00;0.00;0.62;1.50;0.83;;;20.70;21.40;;;;;;2272211;61;20386;-63
2023/03/06 02:57:02;0.00;0.00;0.62;0.00;0.00;0.62;1.73;0.90;;;20.70;21.40;;;;;;2272709;61;20362;-60
2023/03/06 02:59:49;0.00;0.00;0.62;0.00;0.00;0.62;1.93;0.90;;;20.70;21.40;;;;;;2268227;61;20870;-63
2023/03/06 03:02:34;0.00;0.00;0.62;0.00;0.00;0.62;1.40;0.80;;;20.70;21.40;;;;;;2273254;61;20665;-63
2023/03/06 03:05:19;0.00;0.00;0.62;0.00;0.00;0.62;1.60;0.90;;;20.70;21.40;;;;;;2270042;61;20612;-59
2023/03/06 03:08:09;0.00;0.00;0.62;0.00;0.00;0.62;2.10;1.00;;;20.70;21.40;;;;;;2269494;61;20378;-62
2023/03/06 03:10:55;0.00;0.00;0.62;0.00;0.00;0.62;1.40;0.80;;;20.70;21.40;;;;;;2269784;61;20496;-63
2023/03/06 03:13:41;0.00;0.00;0.62;0.00;0.00;0.62;1.30;0.80;;;20.70;21.40;;;;;;2269520;61;20390;-64
2023/03/06 03:16:31;0.00;0.00;0.62;0.00;0.00;0.62;1.45;0.80;;;20.70;21.40;;;;;;2269400;61;20869;-61
2023/03/06 03:19:17;0.00;0.00;0.62;0.00;0.00;0.62;1.60;0.90;;;20.70;21.50;;;;;;2269634;61;20255;-63
2023/03/06 03:22:02;0.00;0.00;0.62;0.00;0.00;0.62;1.57;0.83;;;20.70;21.40;;;;;;2272047;61;20393;-63
2023/03/06 03:27:36;0.00;0.00;0.62;0.00;0.00;0.62;1.30;0.80;;;20.70;21.30;;;;;;2266828;61;20843;-65
2023/03/06 03:30:22;0.00;0.00;0.62;0.00;0.00;0.62;1.50;0.80;;;20.80;21.40;;;;;;2260949;61;20372;-61
2023/03/06 03:33:10;0.00;0.00;0.62;0.00;0.00;0.62;1.30;0.70;;;20.70;21.40;;;;;;2262499;61;20398;-62
2023/03/06 03:35:56;0.00;0.00;0.62;0.00;0.00;0.62;1.50;0.90;;;20.70;21.40;;;;;;2265189;61;20420;-65
2023/03/06 03:38:41;0.00;0.00;0.62;0.00;0.00;0.62;1.30;0.73;;;20.70;21.40;;;;;;2265597;61;20355;-62
2023/03/06 03:41:27;0.00;0.00;0.62;0.00;0.00;0.62;1.63;0.80;;;20.70;21.40;;;;;;2265737;61;20948;-62
2023/03/06 03:44:12;0.00;0.00;0.62;0.00;0.00;0.62;1.60;0.90;;;20.70;21.40;;;;;;2264921;61;20383;-61
2023/03/06 03:46:57;0.00;0.00;0.62;0.00;0.00;0.62;1.37;0.77;;;20.70;21.40;;;;;;2265779;61;20362;-59
2023/03/06 03:49:44;0.00;0.00;0.62;0.00;0.00;0.62;1.30;0.70;;;20.70;21.40;;;;;;2265391;61;20383;-60
2023/03/06 03:52:29;0.00;0.00;0.62;0.00;0.00;0.62;2.07;1.00;;;20.70;21.40;;;;;;2268411;61;20924;-59
2023/03/06 03:55:14;0.00;0.00;0.62;0.00;0.00;0.62;1.80;0.80;;;20.70;21.40;;;;;;2265610;61;20398;-64
2023/03/06 03:58:00;0.00;0.00;0.62;0.00;0.00;0.62;1.30;0.60;;;20.70;21.40;;;;;;2265396;61;20351;-61
2023/03/06 04:00:46;0.00;0.00;0.62;0.00;0.00;0.62;1.43;0.80;;;20.70;21.40;;;;;;2265446;61;20363;-63
2023/03/06 04:03:32;0.00;0.00;0.62;0.00;0.00;0.62;1.50;0.80;;;20.70;21.40;;;;;;2280714;39;20972;-62
2023/03/06 04:06:19;0.00;0.00;0.62;0.00;0.00;0.62;1.60;0.80;;;20.70;21.40;;;;;;2268950;61;20822;-63
2023/03/06 04:09:05;0.00;0.00;0.62;0.00;0.00;0.62;1.30;0.80;;;20.70;21.40;;;;;;2269415;61;20382;-60
2023/03/06 04:11:50;0.00;0.00;0.62;0.00;0.00;0.62;1.40;0.70;;;20.70;21.40;;;;;;2271929;60;20384;-63
2023/03/06 04:14:34;0.00;0.00;0.62;0.00;0.00;0.62;1.43;0.90;;;20.70;21.40;;;;;;2272457;61;20386;-61
2023/03/06 04:17:19;0.00;0.00;0.62;0.00;0.00;0.62;1.60;0.70;;;20.70;21.40;;;;;;2269819;61;20357;-60
2023/03/06 04:20:06;0.00;0.00;0.62;0.00;0.00;0.62;1.50;0.80;;;20.70;21.40;;;;;;2271695;61;20386;-58
2023/03/06 04:22:53;0.00;0.00;0.62;0.00;0.00;0.62;1.50;0.90;;;20.60;21.40;;;;;;2269781;61;20447;-58
2023/03/06 04:25:39;0.00;0.00;0.62;0.00;0.00;0.62;1.60;0.90;;;20.70;21.40;;;;;;2269343;61;20789;-58
2023/03/06 04:28:27;0.00;0.00;0.62;0.00;0.00;0.62;1.50;0.70;;;20.60;21.30;;;;;;2268827;61;20416;-62
2023/03/06 04:31:12;0.00;0.00;0.62;0.00;0.00;0.62;1.30;0.80;;;20.60;21.40;;;;;;2272393;61;20816;-59
2023/03/06 04:33:57;0.00;0.00;0.62;0.00;0.00;0.62;1.60;0.83;;;20.70;21.40;;;;;;2272581;61;20418;-58
2023/03/06 04:36:44;0.00;0.00;0.62;0.00;0.00;0.62;1.60;0.83;;;20.60;21.30;;;;;;2269306;61;20373;-59
2023/03/06 04:39:31;0.00;0.00;0.62;0.00;0.00;0.62;1.40;0.80;;;20.60;21.30;;;;;;2269027;61;20450;-63
2023/03/06 04:42:16;0.00;0.00;0.62;0.00;0.00;0.62;1.30;0.70;;;20.60;21.40;;;;;;2272242;61;20374;-61
2023/03/06 04:45:01;0.00;0.00;0.62;0.00;0.00;0.62;1.30;0.70;;;20.60;21.40;;;;;;2272738;61;20447;-61
2023/03/06 04:47:46;0.00;0.00;0.62;0.00;0.00;0.62;1.43;0.77;;;20.60;21.40;;;;;;2272493;61;20984;-61
2023/03/06 04:50:31;0.00;0.00;0.62;0.00;0.00;0.62;1.20;0.60;;;20.60;21.40;;;;;;2268419;61;20412;-59
2023/03/06 04:53:18;0.00;0.00;0.62;0.00;0.00;0.62;1.23;0.70;;;20.60;21.40;;;;;;2272473;61;20382;-59
2023/03/06 04:56:05;0.00;0.00;0.62;0.00;0.00;0.62;1.37;0.70;;;20.60;21.40;;;;;;2272753;61;20898;-59
2023/03/06 04:58:50;0.00;0.00;0.62;0.00;0.00;0.62;1.50;0.70;;;20.60;21.40;;;;;;2271847;61;20783;-63
2023/03/06 05:01:35;0.00;0.00;0.62;0.00;0.00;0.62;1.70;0.87;;;20.60;21.40;;;;;;2272912;61;20416;-58
2023/03/06 05:04:19;0.00;0.00;0.62;0.00;0.00;0.62;1.50;0.77;;;20.60;21.40;;;;;;2272246;61;20464;-56
2023/03/06 05:07:04;0.00;0.00;0.62;0.00;0.00;0.62;1.30;0.77;;;20.60;21.40;;;;;;2272453;61;20366;-56
2023/03/06 05:09:49;0.00;0.00;0.62;0.00;0.00;0.62;1.40;0.73;;;20.60;21.40;;;;;;2272234;61;20840;-63
2023/03/06 05:12:36;0.00;0.00;0.62;0.00;0.00;0.62;1.33;0.67;;;20.60;21.40;;;;;;2272046;61;20362;-55
2023/03/06 05:15:22;0.00;0.00;0.62;0.00;0.00;0.62;1.30;0.70;;;20.60;21.40;;;;;;2272301;61;20411;-64
2023/03/06 05:18:07;0.00;0.00;0.62;0.00;0.00;0.62;1.40;0.80;;;20.60;21.90;;;;;;2272810;61;20358;-59
2023/03/06 05:20:51;0.00;0.00;0.62;0.00;0.00;0.62;1.30;0.60;;;20.60;21.40;;;;;;2271790;61;20452;-58
2023/03/06 05:23:37;0.00;0.00;0.62;0.00;0.00;0.62;1.40;0.80;;;20.60;21.40;;;;;;2269031;61;20463;-63
2023/03/06 05:26:22;0.00;0.00;0.62;0.00;0.00;0.62;1.30;0.70;;;20.60;21.40;;;;;;2272004;61;20412;-56
2023/03/06 05:29:08;0.00;0.00;0.62;0.00;0.00;0.62;1.30;0.70;;;20.60;21.40;;;;;;2271706;61;20431;-63
2023/03/06 05:31:53;0.00;0.00;0.62;0.00;0.00;0.62;1.27;0.70;;;20.60;21.40;;;;;;2272545;61;20404;-60
2023/03/06 05:34:39;0.00;0.00;0.62;0.00;0.00;0.62;1.30;0.67;;;20.60;21.40;;;;;;2271987;61;20444;-61
2023/03/06 05:37:24;0.00;0.00;0.62;0.00;0.00;0.62;1.20;0.70;;;20.60;21.40;;;;;;2272502;61;20366;-60
2023/03/06 05:40:10;0.00;0.00;0.62;0.00;0.00;0.62;1.30;0.60;;;20.60;21.40;;;;;;2268973;61;20909;-59
2023/03/06 05:42:55;0.00;0.00;0.62;0.00;0.00;0.62;1.30;0.70;;;20.60;21.40;;;;;;2268712;61;20399;-57
2023/03/06 05:45:41;0.00;0.00;0.62;0.00;0.00;0.62;1.47;0.70;;;20.60;21.40;;;;;;2272546;61;20810;-58
2023/03/06 05:48:26;0.00;0.00;0.62;0.00;0.00;0.62;1.83;0.77;;;20.60;21.40;;;;;;2272529;61;20412;-58
2023/03/06 05:51:11;0.00;0.00;0.62;0.00;0.00;0.62;1.30;0.70;;;20.60;21.40;;;;;;2271912;61;20393;-59
2023/03/06 05:53:55;0.00;0.00;0.62;0.00;0.00;0.62;1.43;0.70;;;20.60;21.40;;;;;;2272477;61;20509;-56
2023/03/06 05:56:40;0.00;0.00;0.62;0.00;0.00;0.62;1.20;0.70;;;20.60;21.40;;;;;;2271758;61;20358;-58
2023/03/06 05:59:27;0.00;0.00;0.62;0.00;0.00;0.62;1.33;0.80;;;20.60;21.40;;;;;;2272090;61;20358;-60
2023/03/06 06:02:13;0.00;0.00;0.62;0.00;0.00;0.62;1.20;0.70;;;20.60;21.40;;;;;;2272626;61;20921;-58
2023/03/06 06:04:59;0.00;0.00;0.62;0.00;0.00;0.62;1.43;0.60;;;20.60;21.40;;;;;;2271814;61;20394;-60
2023/03/06 06:07:44;0.00;0.00;0.62;0.00;0.00;0.62;1.30;0.73;;;20.60;21.40;;;;;;2269260;61;20723;-62
2023/03/06 06:10:29;0.00;0.00;0.62;0.00;0.00;0.62;1.80;1.20;;;20.60;21.40;;;;;;2271827;61;20367;-65
2023/03/06 06:13:14;0.00;0.00;0.62;0.00;0.00;0.62;1.40;0.70;;;20.60;21.40;;;;;;2272197;61;20378;-55
2023/03/06 06:15:58;0.00;0.00;0.62;0.00;0.00;0.62;1.57;0.80;;;20.60;21.40;;;;;;2272447;61;20447;-61
2023/03/06 06:18:45;0.00;0.00;0.62;0.00;0.00;0.62;1.30;0.90;;;20.60;21.40;;;;;;2271892;61;20397;-63
2023/03/06 06:21:30;0.00;0.00;0.62;0.00;0.00;0.62;1.30;0.70;;;20.60;21.40;;;;;;2272159;61;20393;-60
2023/03/06 06:24:16;0.00;0.00;0.62;0.00;0.00;0.62;1.50;0.80;;;20.60;21.40;;;;;;2271315;61;20400;-57
2023/03/06 06:27:01;0.00;0.00;0.62;0.00;0.00;0.62;1.30;0.70;;;20.50;21.40;;;;;;2271712;61;20428;-55
2023/03/06 06:29:50;0.00;0.00;0.62;0.00;0.00;0.62;1.50;0.70;;;20.60;21.40;;;;;;2272007;61;20354;-60
2023/03/06 06:32:36;0.00;0.00;0.62;0.00;0.00;0.62;1.30;0.70;;;20.60;21.30;;;;;;2272379;61;20936;-60
2023/03/06 06:35:22;0.00;0.00;0.62;0.00;0.00;0.62;1.30;0.70;;;20.60;21.30;;;;;;2272462;60;20936;-59
2023/03/06 06:38:07;0.00;0.00;0.62;0.00;0.00;0.62;1.40;0.80;;;20.60;21.50;;;;;;2272973;61;20399;-58
2023/03/06 06:40:52;0.00;0.00;0.62;0.00;0.00;0.62;1.50;0.80;;;20.60;21.30;;;;;;2272415;61;20361;-61
2023/03/06 06:43:36;0.00;0.00;0.62;0.00;0.00;0.62;1.40;0.60;;;20.60;21.40;;;;;;2273109;61;20385;-55
2023/03/06 06:46:21;0.00;0.00;0.62;0.00;0.00;0.62;1.77;0.70;;;20.60;21.40;;;;;;2273081;61;20385;-63
2023/03/06 06:49:06;0.00;0.00;0.62;0.00;0.00;0.62;1.33;0.60;;;20.60;21.40;;;;;;2271891;61;20374;-61
2023/03/06 06:51:52;0.00;0.00;0.62;0.00;0.00;0.62;1.33;0.70;;;20.60;21.40;;;;;;2269848;61;20859;-63
2023/03/06 06:54:37;0.00;0.00;0.62;0.00;0.00;0.62;1.30;0.60;;;20.60;21.40;;;;;;2272752;61;20386;-59
2023/03/06 06:57:21;0.00;0.00;0.62;0.00;0.00;0.62;1.30;0.70;;;20.60;21.40;;;;;;2273067;61;20408;-61
2023/03/06 07:00:08;0.00;0.00;0.62;0.00;0.00;0.62;1.20;0.70;;;20.60;21.40;;;;;;2272494;61;20357;-61
2023/03/06 07:02:53;0.00;0.00;0.62;0.00;0.00;0.62;1.40;0.70;;;20.60;21.40;;;;;;2272564;61;20397;-60
2023/03/06 07:05:38;0.00;0.00;0.62;0.00;0.00;0.62;1.30;0.70;;;20.60;21.40;;;;;;2272690;61;20389;-64
2023/03/06 07:08:24;0.00;0.00;0.62;0.00;0.00;0.62;1.40;0.70;;;20.60;21.50;;;;;;2272967;61;20385;-63
2023/03/06 07:11:11;0.00;0.00;0.62;0.00;0.00;0.62;1.33;0.70;;;20.60;21.40;;;;;;2272028;61;20410;-61
2023/03/06 07:13:56;0.00;0.00;0.62;0.00;0.00;0.62;1.30;0.70;;;20.60;21.40;;;;;;2272253;61;20413;-63
2023/03/06 07:16:41;0.00;0.00;0.62;0.00;0.00;0.62;1.30;0.70;;;20.60;21.40;;;;;;2269798;61;20354;-57
2023/03/06 07:19:26;0.00;0.00;0.62;0.00;0.00;0.62;1.40;0.70;;;20.60;21.40;;;;;;2272173;61;20405;-58
2023/03/06 07:22:10;0.00;0.00;0.62;0.00;0.00;0.62;1.23;0.60;;;20.60;21.40;;;;;;2273026;61;20358;-61
2023/03/06 07:24:56;0.00;0.00;0.62;0.00;0.00;0.62;1.93;1.00;;;20.60;21.50;;;;;;2272271;61;20401;-63
2023/03/06 07:27:41;0.00;0.00;0.62;0.00;0.00;0.62;1.30;0.60;;;20.50;21.40;;;;;;2272610;61;20414;-63
2023/03/06 07:30:26;0.00;0.00;0.62;0.00;0.00;0.62;1.60;0.70;;;20.50;21.40;;;;;;2272485;61;20564;-58
2023/03/06 07:33:11;0.00;0.00;0.62;0.00;0.00;0.62;1.50;0.70;;;20.60;21.50;;;;;;2272139;61;20377;-56
2023/03/06 07:35:55;0.00;0.00;0.62;0.00;0.00;0.62;1.40;0.70;;;20.50;21.40;;;;;;2272610;61;20388;-58
2023/03/06 07:38:40;0.00;0.00;0.62;0.00;0.00;0.62;1.30;0.70;;;20.50;21.50;;;;;;2272959;61;20655;-62
2023/03/06 07:41:26;0.00;0.00;0.62;0.00;0.00;0.62;1.20;0.60;;;20.60;21.50;;;;;;2271901;61;20773;-56
2023/03/06 07:44:11;0.00;0.00;0.62;0.00;0.00;0.62;1.27;0.63;;;20.60;21.40;;;;;;2272615;61;20379;-58
2023/03/06 07:46:56;0.00;0.00;0.62;0.00;0.00;0.62;1.30;0.70;;;20.60;21.40;;;;;;2269422;61;20440;-57
2023/03/06 07:49:40;0.00;0.00;0.62;0.00;0.00;0.62;1.63;0.70;;;20.60;21.40;;;;;;2272232;61;20381;-61
2023/03/06 07:52:25;0.00;0.00;0.62;0.00;0.00;0.62;1.60;0.90;;;20.60;21.40;;;;;;2272843;61;20409;-56
2023/03/06 07:55:11;0.00;0.00;0.62;0.00;0.00;0.62;1.23;0.70;;;20.60;21.40;;;;;;2326138;40;20413;-62
2023/03/06 07:57:57;0.00;0.00;0.62;0.00;0.00;0.62;1.27;0.60;;;20.60;21.40;;;;;;2269625;61;20411;-62
2023/03/06 08:00:42;0.00;0.00;0.62;0.00;0.00;0.62;1.50;0.70;;;20.60;21.40;;;;;;2272161;61;20393;-66
2023/03/06 08:03:27;0.00;0.00;0.62;0.00;0.00;0.62;1.20;0.60;;;20.60;21.40;;;;;;2272317;61;20867;-59
2023/03/06 08:06:14;0.00;0.00;0.62;0.00;0.00;0.62;1.30;0.70;;;20.60;21.40;;;;;;2272751;61;20358;-60
2023/03/06 08:08:59;0.00;0.00;0.62;0.00;0.00;0.62;1.30;0.70;;;20.60;21.50;;;;;;2272119;61;20435;-65
2023/03/06 08:11:44;0.00;0.00;0.62;0.00;0.00;0.62;1.30;0.70;;;20.60;21.50;;;;;;2272689;61;20588;-59
2023/03/06 08:14:33;0.00;0.00;0.62;0.00;0.00;0.62;1.20;0.70;;;20.60;21.50;;;;;;2272413;61;20398;-64
2023/03/06 08:17:18;0.00;0.00;0.62;0.00;0.00;0.62;1.30;0.70;;;20.50;21.40;;;;;;2272234;61;20394;-59
2023/03/06 08:20:05;0.00;0.00;0.62;0.00;0.00;0.62;1.30;0.70;;;20.60;21.50;;;;;;2272477;61;20388;-59
2023/03/06 08:22:49;0.00;0.00;0.62;0.00;0.00;0.62;1.30;0.60;;;20.60;21.50;;;;;;2272114;61;20362;-59
2023/03/06 08:25:34;0.00;0.00;0.62;0.00;0.00;0.62;1.40;0.60;;;20.60;21.50;;;;;;2272208;61;20442;-65
2023/03/06 08:28:19;0.00;0.00;0.62;0.00;0.00;0.62;1.40;0.70;;;20.50;21.40;;;;;;2272456;61;20381;-61
2023/03/06 08:31:10;0.00;0.00;0.62;0.00;0.00;0.62;1.40;0.60;;;20.50;21.40;;;;;;2272387;61;20405;-60
2023/03/06 08:33:58;0.00;0.00;0.62;0.00;0.00;0.62;1.67;0.70;;;20.50;21.40;;;;;;2272072;61;20949;-63
2023/03/06 08:36:43;0.00;0.00;0.62;0.00;0.00;0.62;1.30;0.60;;;20.60;21.50;;;;;;2272903;61;20374;-57
2023/03/06 08:39:27;0.00;0.00;0.62;0.00;0.00;0.62;1.40;0.80;;;20.60;21.50;;;;;;2271802;61;20350;-59
2023/03/06 08:42:14;0.00;0.00;0.62;0.00;0.00;0.62;1.20;0.60;;;20.50;21.40;;;;;;2272148;61;20778;-61
2023/03/06 08:44:59;0.00;0.00;0.62;0.00;0.00;0.62;1.30;0.70;;;20.60;21.50;;;;;;2272722;61;20377;-60
2023/03/06 08:47:45;0.00;0.00;0.62;0.00;0.00;0.62;1.20;0.60;;;20.60;21.50;;;;;;2271868;61;20390;-58
2023/03/06 08:50:30;0.00;0.00;0.62;0.00;0.00;0.62;1.20;0.60;;;20.60;21.50;;;;;;2272327;61;20382;-64
2023/03/06 08:53:15;0.00;0.00;0.62;0.00;0.00;0.62;1.20;0.60;;;20.60;21.50;;;;;;2272433;61;20413;-63
2023/03/06 08:56:00;0.00;0.00;0.62;0.00;0.00;0.62;1.30;0.70;;;20.50;21.50;;;;;;2272033;61;20352;-61
2023/03/06 08:58:45;0.00;0.00;0.62;0.00;0.00;0.62;1.90;0.80;;;20.50;21.50;;;;;;2272674;61;20253;-59
2023/03/06 09:01:33;0.00;0.00;0.62;0.00;0.00;0.62;1.40;0.70;;;20.60;21.50;;;;;;2272322;61;20373;-61
2023/03/06 09:04:19;0.00;0.00;0.62;0.00;0.00;0.62;1.40;0.70;;;20.50;21.50;;;;;;2272515;61;20374;-59
2023/03/06 09:07:04;0.00;0.00;0.62;0.00;0.00;0.62;1.50;0.70;;;20.60;21.50;;;;;;2272788;61;20388;-59
2023/03/06 09:09:48;0.00;0.00;0.62;0.00;0.00;0.62;1.30;0.70;;;20.60;21.50;;;;;;2271535;61;20451;-62
2023/03/06 09:12:34;0.00;0.00;0.62;0.00;0.00;0.62;1.30;0.70;;;20.60;21.50;;;;;;2272358;61;20888;-57
2023/03/06 09:15:21;0.00;0.00;0.62;0.00;0.00;0.62;1.50;0.80;;;20.60;21.50;;;;;;2272577;61;20357;-63
2023/03/06 09:18:06;0.00;0.00;0.62;0.00;0.00;0.62;1.20;0.60;;;20.50;21.50;;;;;;2272075;61;20905;-61
2023/03/06 09:20:52;0.00;0.00;0.62;0.00;0.00;0.62;1.40;0.70;;;20.60;21.50;;;;;;2269056;61;20364;-59
2023/03/06 09:23:38;0.00;0.00;0.62;0.00;0.00;0.62;1.20;0.60;;;20.60;21.50;;;;;;2271911;61;20435;-63
2023/03/06 09:26:23;0.00;0.00;0.62;0.00;0.00;0.62;1.40;0.70;;;20.50;21.40;;;;;;2269444;61;20354;-61
2023/03/06 09:29:08;0.00;0.00;0.62;0.00;0.00;0.62;1.50;0.70;;;20.60;21.50;;;;;;2272246;61;20374;-60
2023/03/06 09:31:53;0.00;0.00;0.62;0.00;0.00;0.62;1.20;0.63;;;20.60;21.50;;;;;;2271908;61;20839;-55
2023/03/06 09:34:37;0.00;0.00;0.62;0.00;0.00;0.62;1.40;0.80;;;20.60;21.60;;;;;;2272265;61;20381;-53
2023/03/06 09:37:23;0.00;0.00;0.62;0.00;0.00;0.62;1.80;0.80;;;20.60;21.50;;;;;;2272384;61;20399;-52
2023/03/06 09:40:20;0.00;0.00;0.62;0.00;0.00;0.62;1.40;0.80;;;20.60;21.50;;;;;;2271827;61;20381;-60
2023/03/06 09:43:04;0.00;0.00;0.62;0.00;0.00;0.62;1.30;0.70;;;20.60;21.60;;;;;;2272683;61;20765;-58
2023/03/06 09:45:49;0.00;0.00;0.62;0.00;0.00;0.62;1.30;0.70;;;20.60;21.60;;;;;;2272168;61;20354;-62
2023/03/06 09:48:45;0.00;0.00;0.62;0.00;0.00;0.62;1.47;0.80;;;20.60;21.60;;;;;;2272541;61;20424;-58
2023/03/06 09:51:46;0.00;0.00;0.62;0.00;0.00;0.62;1.30;0.70;;;20.60;21.60;;;;;;2272572;61;20960;-68
2023/03/06 09:54:41;0.00;0.00;0.62;0.00;0.00;0.62;1.77;1.17;;;20.60;21.70;;;;;;2271648;61;20378;-60
2023/03/06 09:57:30;0.00;0.00;0.62;0.00;0.00;0.62;1.53;0.90;;;20.60;21.70;;;;;;2272237;61;20408;-61
2023/03/06 10:00:22;0.00;0.00;0.62;0.00;0.00;0.62;1.60;0.80;;;20.60;21.70;;;;;;2271697;61;20438;-65
2023/03/06 10:03:18;0.00;0.00;0.62;0.00;0.00;0.62;2.03;0.90;;;20.60;21.70;;;;;;2268969;61;20370;-61
2023/03/06 10:06:11;0.00;0.00;0.62;0.00;0.00;0.62;1.47;0.93;;;20.60;21.70;;;;;;2272591;61;20461;-65
2023/03/06 10:09:01;0.00;0.00;0.62;0.00;0.00;0.62;2.67;1.10;;;20.60;21.70;;;;;;2271730;61;20904;-59
2023/03/06 10:11:53;0.00;0.00;0.62;0.00;0.00;0.62;1.50;1.00;;;20.60;21.90;;;;;;2272679;61;20786;-60
2023/03/06 10:14:42;0.00;0.00;0.62;0.00;0.00;0.62;1.90;1.40;;;20.60;21.80;;;;;;2271941;61;20390;-67
2023/03/06 10:17:34;0.00;0.00;0.62;0.00;0.00;0.62;2.33;1.60;;;20.60;21.90;;;;;;2272204;61;20231;-61
2023/03/06 10:20:22;0.00;0.00;0.62;0.00;0.00;0.62;2.03;1.60;;;20.70;21.90;;;;;;2271949;61;20777;-61
2023/03/06 10:23:26;0.00;0.00;0.62;0.00;0.00;0.62;4.63;1.60;;;20.70;21.80;;;;;;2272011;61;20427;-60
2023/03/06 10:26:17;0.00;0.00;0.62;0.00;0.00;0.62;2.57;1.50;;;20.70;21.80;;;;;;2272243;61;20371;-60
2023/03/06 10:29:29;0.00;0.00;0.62;0.00;0.00;0.62;2.60;1.63;;;20.80;22.40;;;;;;2272153;61;20414;-62
2023/03/06 10:32:25;0.00;0.00;0.62;0.00;0.00;0.62;2.80;2.00;;;20.80;22.00;;;;;;2272028;61;20972;-64
2023/03/06 10:35:17;0.00;0.00;0.62;0.00;0.00;0.62;3.27;2.23;;;20.80;22.00;;;;;;2272316;61;20397;-65
2023/03/06 10:38:14;0.00;0.00;0.62;0.00;0.00;0.62;2.63;1.60;;;20.80;22.00;;;;;;2271617;61;20368;-65
2023/03/06 10:41:06;0.00;0.00;0.62;0.00;0.00;0.62;2.70;2.10;;;20.80;22.00;;;;;;2272024;61;20398;-63
2023/03/06 10:44:22;0.00;0.00;0.62;0.00;0.00;0.62;2.53;1.73;;;20.80;22.10;;;;;;2272208;61;20512;-64
2023/03/06 10:47:28;0.00;0.00;0.62;0.00;0.00;0.62;4.10;2.13;;;20.80;22.10;;;;;;2272081;61;20400;-65
2023/03/06 10:50:25;0.00;0.00;0.62;0.00;0.00;0.62;3.47;2.23;;;20.80;22.10;;;;;;2272250;61;20366;-61
2023/03/06 10:53:20;0.00;0.00;0.62;0.00;0.00;0.62;3.03;2.10;;;20.80;22.10;;;;;;2271419;61;20374;-60
2023/03/06 10:56:08;0.00;0.00;0.62;0.00;0.00;0.62;2.63;2.23;;;20.80;22.20;;;;;;2272458;61;20446;-62
2023/03/06 10:59:11;0.00;0.00;0.62;0.00;0.00;0.62;2.77;2.03;;;20.80;22.20;;;;;;2272611;61;20334;-61
2023/03/06 11:02:22;0.00;0.00;0.62;0.00;0.00;0.62;2.23;1.80;;;20.90;22.20;;;;;;2272118;61;20538;-58